createdAt,value
2023-11-01T00:01:49.097Z,94324.25
2023-11-01T00:04:15.844Z,94323.56
2023-11-01T00:06:42.506Z,94329.50
2023-11-01T00:09:09.347Z,94328.78
2023-11-01T00:11:35.997Z,94322.84
2023-11-01T00:14:03.830Z,94323.31
2023-11-01T00:16:30.499Z,94320.22
2023-11-01T00:18:57.099Z,94326.16
2023-11-01T00:21:23.711Z,94327.59
2023-11-01T00:23:50.927Z,94321.47
2023-11-01T00:26:17.848Z,94335.75
2023-11-01T00:28:44.448Z,94340.72
2023-11-01T00:31:11.061Z,94338.59
2023-11-01T00:33:37.773Z,94347.16
2023-11-01T00:36:05.124Z,94345.25
2023-11-01T00:38:36.747Z,94344.03
2023-11-01T00:41:04.363Z,94344.03
2023-11-01T00:43:31.624Z,94345.94
2023-11-01T00:45:58.702Z,94346.44
2023-11-01T00:48:25.410Z,94342.41
2023-11-01T00:50:52.036Z,94337.16
2023-11-01T00:53:18.676Z,94343.81
2023-11-01T00:55:45.270Z,94331.91
2023-11-01T00:58:11.823Z,94329.06
2023-11-01T01:00:38.502Z,94329.31
2023-11-01T01:03:05.273Z,94325.25
2023-11-01T01:05:31.973Z,94318.81
2023-11-01T01:07:58.658Z,94328.09
2023-11-01T01:10:25.235Z,94322.84
2023-11-01T01:12:51.849Z,94318.31
2023-11-01T01:15:18.515Z,94311.88
2023-11-01T01:17:45.511Z,94316.41
2023-11-01T01:20:12.468Z,94313.78
2023-11-01T01:22:39.161Z,94308.53
2023-11-01T01:25:06.414Z,94307.13
2023-11-01T01:27:33.030Z,94304.50
2023-11-01T01:29:59.710Z,94296.13
2023-11-01T01:32:26.539Z,94300.47
2023-11-01T01:34:53.303Z,94299.25
2023-11-01T01:37:19.909Z,94291.38
2023-11-01T01:39:46.494Z,94279.00
2023-11-01T01:42:14.664Z,94288.06
2023-11-01T01:44:41.455Z,94285.44
2023-11-01T01:47:09.031Z,94276.63
2023-11-01T01:49:40.242Z,94280.94
2023-11-01T01:52:12.616Z,94274.94
2023-11-01T01:54:39.528Z,94276.38
2023-11-01T01:57:06.604Z,94273.03
2023-11-01T01:59:33.522Z,94269.69
2023-11-01T02:02:01.050Z,94268.31
2023-11-01T02:04:28.081Z,94262.84
2023-11-01T02:06:54.836Z,94264.00
2023-11-01T02:09:21.464Z,94257.81
2023-11-01T02:11:48.118Z,94254.97
2023-11-01T02:14:15.011Z,94258.31
2023-11-01T02:16:41.807Z,94240.94
2023-11-01T02:19:09.933Z,94243.31
2023-11-01T02:21:37.293Z,94245.69
2023-11-01T02:24:07.420Z,94242.88
2023-11-01T02:26:34.316Z,94238.59
2023-11-01T02:29:01.028Z,94233.09
2023-11-01T02:31:27.796Z,94232.88
2023-11-01T02:33:55.023Z,94232.19
2023-11-01T02:36:21.723Z,94225.28
2023-11-01T02:38:48.407Z,94220.78
2023-11-01T02:41:15.801Z,94217.22
2023-11-01T02:43:42.720Z,94215.56
2023-11-01T02:46:09.514Z,94214.34
2023-11-01T02:48:36.223Z,94204.63
2023-11-01T02:51:03.065Z,94203.91
2023-11-01T02:53:29.732Z,94202.72
2023-11-01T02:55:56.417Z,94201.28
2023-11-01T02:58:25.284Z,94199.91
2023-11-01T03:00:52.082Z,94201.31
2023-11-01T03:03:19.274Z,94197.75
2023-11-01T03:05:46.114Z,94192.78
2023-11-01T03:08:12.863Z,94193.75
2023-11-01T03:10:39.544Z,94194.69
2023-11-01T03:13:06.227Z,94186.59
2023-11-01T03:15:32.935Z,94195.66
2023-11-01T03:17:59.751Z,94191.34
2023-11-01T03:20:26.601Z,94187.81
2023-11-01T03:22:53.288Z,94192.81
2023-11-01T03:25:20.021Z,94191.91
2023-11-01T03:27:46.665Z,94190.47
2023-11-01T03:30:13.425Z,94184.97
2023-11-01T03:32:40.855Z,94185.25
2023-11-01T03:35:08.171Z,94190.50
2023-11-01T03:37:34.877Z,94184.78
2023-11-01T03:40:01.725Z,94183.81
2023-11-01T03:42:28.361Z,94182.41
2023-11-01T03:44:55.010Z,94183.81
2023-11-01T03:47:21.772Z,94185.47
2023-11-01T03:49:48.498Z,94177.41
2023-11-01T03:52:15.172Z,94182.91
2023-11-01T03:54:42.185Z,94181.94
2023-11-01T03:57:08.816Z,94179.78
2023-11-01T03:59:35.681Z,94184.31
2023-11-01T04:02:02.431Z,94183.84
2023-11-01T04:04:29.423Z,94193.84
2023-11-01T04:06:56.276Z,94190.53
2023-11-01T04:09:23.084Z,94181.94
2023-11-01T04:11:49.837Z,94184.56
2023-11-01T04:14:16.638Z,94176.47
2023-11-01T04:16:43.320Z,94178.38
2023-11-01T04:19:12.640Z,94164.81
2023-11-01T04:21:39.733Z,94169.34
2023-11-01T04:24:06.708Z,94169.34
2023-11-01T04:26:35.033Z,94172.22
2023-11-01T04:29:01.810Z,94163.63
2023-11-01T04:31:28.928Z,94156.75
2023-11-01T04:33:55.869Z,94158.91
2023-11-01T04:36:28.446Z,94158.19
2023-11-01T04:38:56.527Z,94154.63
2023-11-01T04:41:29.064Z,94143.66
2023-11-01T04:43:56.824Z,94148.91
2023-11-01T04:46:23.915Z,94139.59
2023-11-01T04:48:51.339Z,94138.44
2023-11-01T04:51:18.532Z,94144.38
2023-11-01T04:53:45.963Z,94139.59
2023-11-01T04:56:12.702Z,94129.66
2023-11-01T04:58:39.569Z,94132.28
2023-11-01T05:01:06.683Z,94122.28
2023-11-01T05:03:36.343Z,94118.94
2023-11-01T05:06:03.544Z,94128.47
2023-11-01T05:08:30.506Z,94126.09
2023-11-01T05:10:57.193Z,94120.88
2023-11-01T05:13:23.826Z,94111.34
2023-11-01T05:15:50.648Z,94114.69
2023-11-01T05:18:17.342Z,94114.44
2023-11-01T05:20:44.768Z,94114.22
2023-11-01T05:23:11.516Z,94114.22
2023-11-01T05:25:38.202Z,94114.44
2023-11-01T05:28:04.990Z,94116.31
2023-11-01T05:30:31.946Z,94109.91
2023-11-01T05:32:58.739Z,94107.06
2023-11-01T05:35:25.504Z,94102.09
2023-11-01T05:37:53.338Z,94103.97
2023-11-01T05:40:20.162Z,94095.88
2023-11-01T05:42:47.895Z,94100.16
2023-11-01T05:45:18.606Z,94105.41
2023-11-01T05:47:53.682Z,94093.25
2023-11-01T05:50:26.478Z,94092.53
2023-11-01T05:52:55.673Z,94089.94
2023-11-01T05:55:26.682Z,94088.53
2023-11-01T05:58:01.206Z,94093.47
2023-11-01T06:00:28.017Z,94085.41
2023-11-01T06:02:54.921Z,94084.94
2023-11-01T06:05:24.118Z,94086.63
2023-11-01T06:07:51.740Z,94083.50
2023-11-01T06:10:19.358Z,94083.28
2023-11-01T06:12:46.306Z,94088.97
2023-11-01T06:15:13.270Z,94088.72
2023-11-01T06:17:40.250Z,94085.88
2023-11-01T06:20:08.001Z,94079.47
2023-11-01T06:22:34.824Z,94087.06
2023-11-01T06:25:04.280Z,94084.44
2023-11-01T06:27:31.193Z,94089.19
2023-11-01T06:29:58.804Z,94086.13
2023-11-01T06:32:25.593Z,94079.69
2023-11-01T06:34:52.308Z,94083.94
2023-11-01T06:37:18.999Z,94088.00
2023-11-01T06:39:45.677Z,94088.50
2023-11-01T06:42:12.426Z,94084.91
2023-11-01T06:44:39.208Z,94086.34
2023-11-01T06:47:06.339Z,94085.16
2023-11-01T06:49:35.613Z,94087.06
2023-11-01T06:52:02.486Z,94082.53
2023-11-01T06:54:29.607Z,94079.66
2023-11-01T06:56:57.633Z,94080.66
2023-11-01T06:59:24.597Z,94077.78
2023-11-01T07:01:51.343Z,94079.66
2023-11-01T07:04:18.224Z,94079.22
2023-11-01T07:06:44.920Z,94080.66
2023-11-01T07:09:12.125Z,94079.47
2023-11-01T07:11:39.139Z,94065.44
2023-11-01T07:14:05.864Z,94074.47
2023-11-01T07:16:32.730Z,94075.88
2023-11-01T07:18:59.446Z,94079.69
2023-11-01T07:21:26.213Z,94077.31
2023-11-01T07:23:53.117Z,94084.22
2023-11-01T07:26:19.918Z,94077.81
2023-11-01T07:28:46.664Z,94081.16
2023-11-01T07:31:14.852Z,94093.25
2023-11-01T07:33:43.791Z,94084.94
2023-11-01T07:36:11.530Z,94085.41
2023-11-01T07:38:40.703Z,94082.31
2023-11-01T07:41:09.146Z,94080.19
2023-11-01T07:43:35.792Z,94075.22
2023-11-01T07:46:02.642Z,94060.97
2023-11-01T07:48:29.524Z,94058.81
2023-11-01T07:50:56.267Z,94044.81
2023-11-01T07:53:22.965Z,94045.06
2023-11-01T07:55:52.271Z,94035.56
2023-11-01T07:58:20.523Z,94039.38
2023-11-01T08:00:47.186Z,94034.41
2023-11-01T08:03:13.946Z,94032.00
2023-11-01T08:05:40.811Z,94031.75
2023-11-01T08:08:08.328Z,94026.31
2023-11-01T08:10:35.141Z,94021.31
2023-11-01T08:13:01.925Z,94022.00
2023-11-01T08:15:28.636Z,94026.06
2023-11-01T08:17:55.387Z,94019.16
2023-11-01T08:20:25.879Z,94005.13
2023-11-01T08:22:52.780Z,94014.16
2023-11-01T08:25:21.931Z,94013.19
2023-11-01T08:27:49.373Z,94005.81
2023-11-01T08:30:16.605Z,94008.88
2023-11-01T08:32:43.488Z,94006.03
2023-11-01T08:35:11.214Z,94012.44
2023-11-01T08:37:38.628Z,94003.16
2023-11-01T08:40:05.875Z,94003.63
2023-11-01T08:42:32.920Z,94004.09
2023-11-01T08:44:59.597Z,93993.38
2023-11-01T08:47:43.175Z,93988.59
2023-11-01T08:50:14.776Z,93992.16
2023-11-01T08:52:44.120Z,93990.00
2023-11-01T08:55:14.955Z,93986.16
2023-11-01T08:57:42.960Z,93984.00
2023-11-01T09:00:10.499Z,93992.31
2023-11-01T09:02:37.463Z,93993.97
2023-11-01T09:05:04.487Z,93993.94
2023-11-01T09:07:31.334Z,94000.34
2023-11-01T09:10:00.471Z,93992.00
2023-11-01T09:12:29.121Z,93987.44
2023-11-01T09:14:55.938Z,93982.66
2023-11-01T09:17:22.684Z,93989.28
2023-11-01T09:19:49.380Z,93988.56
2023-11-01T09:22:16.872Z,93989.22
2023-11-01T09:24:44.126Z,93985.84
2023-11-01T09:27:10.820Z,93986.03
2023-11-01T09:29:38.070Z,93986.50
2023-11-01T09:32:05.606Z,93986.22
2023-11-01T09:34:33.974Z,93986.66
2023-11-01T09:37:00.994Z,93985.66
2023-11-01T09:39:27.757Z,93984.63
2023-11-01T09:42:21.797Z,93985.56
2023-11-01T09:44:53.736Z,93971.50
2023-11-01T09:47:22.958Z,93972.44
2023-11-01T09:49:50.931Z,93979.28
2023-11-01T09:52:18.334Z,93971.81
2023-11-01T09:54:45.176Z,93964.34
2023-11-01T09:57:14.029Z,93967.13
2023-11-01T09:59:40.830Z,93965.63
2023-11-01T10:02:10.425Z,93956.81
2023-11-01T10:04:40.274Z,93951.00
2023-11-01T10:07:08.174Z,93961.91
2023-11-01T10:09:38.143Z,93969.72
2023-11-01T10:12:09.539Z,93971.59
2023-11-01T10:14:37.982Z,93953.63
2023-11-01T10:17:05.533Z,93957.34
2023-11-01T10:19:32.704Z,93944.34
2023-11-01T10:21:59.531Z,93945.00
2023-11-01T10:24:26.777Z,93936.22
2023-11-01T10:26:58.167Z,93933.31
2023-11-01T10:29:28.599Z,93932.50
2023-11-01T10:31:59.819Z,93930.00
2023-11-01T10:34:30.869Z,93913.78
2023-11-01T10:37:01.393Z,93910.94
2023-11-01T10:39:28.336Z,93905.16
2023-11-01T10:41:56.108Z,93902.25
2023-11-01T10:44:24.244Z,93896.72
2023-11-01T10:46:51.655Z,93899.50
2023-11-01T10:49:18.445Z,93895.53
2023-11-01T10:51:45.866Z,93889.56
2023-11-01T10:54:13.866Z,93884.44
2023-11-01T10:56:41.253Z,93884.22
2023-11-01T10:59:34.322Z,93886.38
2023-11-01T11:02:11.862Z,93882.69
2023-11-01T11:04:48.371Z,93868.25
2023-11-01T11:07:24.907Z,93865.63
2023-11-01T11:10:20.963Z,93863.81
2023-11-01T11:13:11.261Z,93858.78
2023-11-01T11:15:47.765Z,93858.44
2023-11-01T11:18:25.629Z,93850.28
2023-11-01T11:20:57.082Z,93857.13
2023-11-01T11:23:34.212Z,93857.47
2023-11-01T11:26:03.168Z,93864.25
2023-11-01T11:28:42.213Z,93857.22
2023-11-01T11:31:13.676Z,93867.03
2023-11-01T11:34:00.420Z,93857.03
2023-11-01T11:36:28.081Z,93854.78
2023-11-01T11:39:07.149Z,93855.94
2023-11-01T11:41:39.901Z,93850.19
2023-11-01T11:44:13.428Z,93853.72
2023-11-01T11:46:41.865Z,93849.56
2023-11-01T11:49:27.578Z,93845.78
2023-11-01T11:51:59.766Z,93847.53
2023-11-01T11:54:31.739Z,93848.72
2023-11-01T11:57:01.238Z,93835.25
2023-11-01T11:59:29.225Z,93841.81
2023-11-01T12:02:16.659Z,93837.94
2023-11-01T12:04:47.088Z,93834.56
2023-11-01T12:07:19.706Z,93835.72
2023-11-01T12:09:50.191Z,93835.72
2023-11-01T12:12:16.992Z,93822.56
2023-11-01T12:14:44.326Z,93820.81
2023-11-01T12:17:11.249Z,93815.25
2023-11-01T12:19:45.504Z,93811.22
2023-11-01T12:22:12.223Z,93797.22
2023-11-01T12:24:38.883Z,93794.78
2023-11-01T12:27:06.410Z,93791.63
2023-11-01T12:29:37.666Z,93787.06
2023-11-01T12:32:08.322Z,93785.53
2023-11-01T12:34:47.460Z,93789.25
2023-11-01T12:37:16.326Z,93783.59
2023-11-01T12:40:28.158Z,93782.22
2023-11-01T12:43:13.619Z,93777.47
2023-11-01T12:45:40.294Z,93776.44
2023-11-01T12:48:07.895Z,93778.75
2023-11-01T12:50:36.692Z,93772.09
2023-11-01T12:53:04.161Z,93766.53
2023-11-01T12:55:30.914Z,93763.41
2023-11-01T12:58:00.846Z,93762.53
2023-11-01T13:00:31.898Z,93751.34
2023-11-01T13:02:59.204Z,93756.97
2023-11-01T13:05:25.995Z,93754.03
2023-11-01T13:07:56.842Z,93748.47
2023-11-01T13:10:23.915Z,93755.88
2023-11-01T13:12:50.695Z,93754.59
2023-11-01T13:15:18.038Z,93754.75
2023-11-01T13:17:45.336Z,93742.28
2023-11-01T13:20:12.378Z,93744.56
2023-11-01T13:22:39.028Z,93740.19
2023-11-01T13:25:06.334Z,93737.25
2023-11-01T13:27:33.024Z,93742.16
2023-11-01T13:29:59.765Z,93739.72
2023-11-01T13:32:27.014Z,93744.78
2023-11-01T13:34:55.998Z,93734.09
2023-11-01T13:37:22.734Z,93737.63
2023-11-01T13:39:49.474Z,93729.91
2023-11-01T13:42:17.157Z,93730.97
2023-11-01T13:44:45.398Z,93724.47
2023-11-01T13:47:12.478Z,93719.56
2023-11-01T13:49:41.235Z,93715.53
2023-11-01T13:52:08.577Z,93719.75
2023-11-01T13:54:35.445Z,93714.31
2023-11-01T13:57:04.524Z,93715.53
2023-11-01T13:59:31.572Z,93713.06
2023-11-01T14:02:01.393Z,93712.06
2023-11-01T14:04:28.275Z,93714.13
2023-11-01T14:06:55.205Z,93714.88
2023-11-01T14:09:22.249Z,93713.28
2023-11-01T14:11:52.773Z,93708.19
2023-11-01T14:14:21.576Z,93700.63
2023-11-01T14:16:48.841Z,93703.97
2023-11-01T14:19:15.661Z,93703.44
2023-11-01T14:21:42.796Z,93694.47
2023-11-01T14:24:11.331Z,93693.59
2023-11-01T14:26:39.155Z,93679.19
2023-11-01T14:29:06.318Z,93688.16
2023-11-01T14:31:33.467Z,93693.44
2023-11-01T14:34:00.469Z,93688.16
2023-11-01T14:36:27.364Z,93687.44
2023-11-01T14:38:54.331Z,93685.50
2023-11-01T14:41:21.124Z,93681.66
2023-11-01T14:43:47.865Z,93677.59
2023-11-01T14:46:14.849Z,93667.94
2023-11-01T14:48:44.521Z,93669.88
2023-11-01T14:51:11.582Z,93683.06
2023-11-01T14:53:38.596Z,93679.00
2023-11-01T14:56:16.177Z,93681.66
2023-11-01T14:58:45.618Z,93681.47
2023-11-01T15:01:12.469Z,93674.81
2023-11-01T15:03:43.389Z,93664.25
2023-11-01T15:06:10.895Z,93665.47
2023-11-01T15:08:42.295Z,93665.47
2023-11-01T15:11:11.382Z,93664.06
2023-11-01T15:13:38.141Z,93660.00
2023-11-01T15:16:05.290Z,93663.88
2023-11-01T15:18:32.201Z,93661.78
2023-11-01T15:20:58.932Z,93648.41
2023-11-01T15:23:25.655Z,93650.34
2023-11-01T15:25:52.317Z,93650.84
2023-11-01T15:28:18.956Z,93652.78
2023-11-01T15:30:45.676Z,93661.97
2023-11-01T15:33:12.568Z,93657.00
2023-11-01T15:35:39.977Z,93652.97
2023-11-01T15:38:06.709Z,93643.47
2023-11-01T15:40:34.443Z,93639.94
2023-11-01T15:43:01.565Z,93650.31
2023-11-01T15:45:28.347Z,93648.72
2023-11-01T15:47:56.018Z,93655.78
2023-11-01T15:50:22.911Z,93648.19
2023-11-01T15:52:49.570Z,93641.34
2023-11-01T15:55:16.330Z,93637.78
2023-11-01T15:57:43.024Z,93627.09
2023-11-01T16:00:10.689Z,93635.53
2023-11-01T16:02:37.560Z,93633.22
2023-11-01T16:05:04.750Z,93632.84
2023-11-01T16:07:32.598Z,93633.22
2023-11-01T16:09:59.637Z,93639.69
2023-11-01T16:12:26.773Z,93648.66
2023-11-01T16:14:53.437Z,93646.34
2023-11-01T16:17:23.318Z,93651.44
2023-11-01T16:19:50.082Z,93653.19
2023-11-01T16:22:18.383Z,93646.31
2023-11-01T16:24:45.069Z,93653.38
2023-11-01T16:27:12.101Z,93657.72
2023-11-01T16:29:39.094Z,93656.31
2023-11-01T16:32:06.210Z,93647.53
2023-11-01T16:34:33.024Z,93652.59
2023-11-01T16:36:59.725Z,93654.53
2023-11-01T16:39:26.448Z,93652.25
2023-11-01T16:41:53.161Z,93657.84
2023-11-01T16:44:19.907Z,93643.25
2023-11-01T16:46:46.729Z,93645.72
2023-11-01T16:49:14.852Z,93646.25
2023-11-01T16:51:42.071Z,93646.75
2023-11-01T16:54:09.329Z,93648.31
2023-11-01T16:56:36.259Z,93653.59
2023-11-01T16:59:03.114Z,93662.50
2023-11-01T17:01:31.552Z,93662.16
2023-11-01T17:03:58.855Z,93662.66
2023-11-01T17:06:27.067Z,93661.22
2023-11-01T17:08:54.279Z,93657.72
2023-11-01T17:11:21.485Z,93658.25
2023-11-01T17:13:48.205Z,93662.63
2023-11-01T17:16:18.010Z,93669.78
2023-11-01T17:18:44.765Z,93670.84
2023-11-01T17:21:11.542Z,93674.00
2023-11-01T17:23:44.368Z,93677.84
2023-11-01T17:26:23.812Z,93674.84
2023-11-01T17:28:50.648Z,93679.22
2023-11-01T17:31:35.754Z,93683.59
2023-11-01T17:34:03.055Z,93670.75
2023-11-01T17:36:30.803Z,93662.47
2023-11-01T17:38:58.990Z,93664.72
2023-11-01T17:41:54.129Z,93661.41
2023-11-01T17:44:25.380Z,93667.16
2023-11-01T17:47:00.828Z,93665.75
2023-11-01T17:49:48.973Z,93654.84
2023-11-01T17:52:28.204Z,93658.72
2023-11-01T17:54:55.591Z,93657.09
2023-11-01T17:57:22.410Z,93671.50
2023-11-01T17:59:49.509Z,93677.97
2023-11-01T18:02:28.918Z,93682.53
2023-11-01T18:04:57.080Z,93679.00
2023-11-01T18:07:25.118Z,93667.06
2023-11-01T18:09:57.225Z,93675.47
2023-11-01T18:12:23.939Z,93671.94
2023-11-01T18:14:52.276Z,93674.38
2023-11-01T18:17:21.056Z,93669.63
2023-11-01T18:19:48.433Z,93659.63
2023-11-01T18:22:41.819Z,93665.41
2023-11-01T18:25:33.689Z,93656.44
2023-11-01T18:28:01.720Z,93659.84
2023-11-01T18:30:28.471Z,93670.94
2023-11-01T18:32:55.176Z,93670.94
2023-11-01T18:35:25.227Z,93672.94
2023-11-01T18:37:54.362Z,93670.59
2023-11-01T18:40:25.381Z,93665.47
2023-11-01T18:42:58.229Z,93674.34
2023-11-01T18:45:25.068Z,93674.19
2023-11-01T18:47:53.391Z,93677.63
2023-11-01T18:50:20.317Z,93674.81
2023-11-01T18:52:47.056Z,93665.53
2023-11-01T18:55:24.754Z,93667.38
2023-11-01T18:57:51.463Z,93676.84
2023-11-01T19:00:26.549Z,93683.34
2023-11-01T19:02:56.312Z,93685.91
2023-11-01T19:05:23.418Z,93682.69
2023-11-01T19:07:50.248Z,93671.13
2023-11-01T19:10:22.158Z,93676.38
2023-11-01T19:12:52.151Z,93675.28
2023-11-01T19:15:38.122Z,93670.53
2023-11-01T19:18:14.344Z,93675.09
2023-11-01T19:20:45.214Z,93667.75
2023-11-01T19:23:14.490Z,93676.84
2023-11-01T19:25:41.475Z,93667.34
2023-11-01T19:28:08.117Z,93654.69
2023-11-01T19:30:34.818Z,93658.03
2023-11-01T19:33:01.628Z,93653.31
2023-11-01T19:35:28.427Z,93644.72
2023-11-01T19:37:55.086Z,93656.22
2023-11-01T19:40:24.850Z,93653.59
2023-11-01T19:42:52.675Z,93658.88
2023-11-01T19:45:19.758Z,93662.31
2023-11-01T19:47:47.225Z,93656.34
2023-11-01T19:50:26.147Z,93647.06
2023-11-01T19:52:53.932Z,93640.41
2023-11-01T19:55:20.645Z,93636.88
2023-11-01T19:57:48.765Z,93646.66
2023-11-01T20:00:15.976Z,93642.13
2023-11-01T20:02:43.455Z,93643.34
2023-11-01T20:05:10.388Z,93649.78
2023-11-01T20:07:39.788Z,93649.78
2023-11-01T20:10:11.303Z,93654.13
2023-11-01T20:12:41.084Z,93660.31
2023-11-01T20:15:13.329Z,93660.81
2023-11-01T20:17:40.551Z,93655.69
2023-11-01T20:20:09.060Z,93653.56
2023-11-01T20:22:40.488Z,93657.81
2023-11-01T20:25:10.064Z,93649.03
2023-11-01T20:27:37.105Z,93675.06
2023-11-01T20:30:05.838Z,93671.03
2023-11-01T20:32:32.580Z,93665.09
2023-11-01T20:34:59.330Z,93662.97
2023-11-01T20:37:25.998Z,93658.94
2023-11-01T20:39:52.687Z,93661.34
2023-11-01T20:42:19.538Z,93656.59
2023-11-01T20:44:46.299Z,93655.69
2023-11-01T20:47:12.990Z,93650.25
2023-11-01T20:49:39.777Z,93655.13
2023-11-01T20:52:07.001Z,93647.03
2023-11-01T20:54:33.802Z,93652.28
2023-11-01T20:57:02.283Z,93650.66
2023-11-01T20:59:28.992Z,93638.56
2023-11-01T21:01:55.838Z,93637.13
2023-11-01T21:04:22.760Z,93628.34
2023-11-01T21:06:49.540Z,93636.75
2023-11-01T21:09:16.332Z,93637.03
2023-11-01T21:11:44.148Z,93623.72
2023-11-01T21:14:10.975Z,93626.16
2023-11-01T21:16:37.695Z,93622.63
2023-11-01T21:19:04.658Z,93621.69
2023-11-01T21:21:31.685Z,93614.13
2023-11-01T21:23:58.448Z,93617.47
2023-11-01T21:26:25.340Z,93612.53
2023-11-01T21:28:52.084Z,93612.31
2023-11-01T21:31:18.978Z,93603.56
2023-11-01T21:33:46.819Z,93600.03
2023-11-01T21:36:13.836Z,93607.50
2023-11-01T21:38:43.797Z,93601.81
2023-11-01T21:41:13.440Z,93594.44
2023-11-01T21:43:50.074Z,93598.31
2023-11-01T21:46:22.764Z,93591.41
2023-11-01T21:48:49.569Z,93593.84
2023-11-01T21:51:16.383Z,93592.94
2023-11-01T21:53:43.895Z,93576.59
2023-11-01T21:56:10.693Z,93577.13
2023-11-01T21:58:37.592Z,93577.41
2023-11-01T22:01:07.465Z,93562.88
2023-11-01T22:03:41.756Z,93557.25
2023-11-01T22:06:28.295Z,93551.78
2023-11-01T22:08:57.430Z,93541.56
2023-11-01T22:11:24.370Z,93547.63
2023-11-01T22:13:51.016Z,93545.34
2023-11-01T22:16:44.769Z,93545.13
2023-11-01T22:19:18.605Z,93544.22
2023-11-01T22:21:45.207Z,93541.47
2023-11-01T22:24:13.158Z,93535.13
2023-11-01T22:26:44.325Z,93535.63
2023-11-01T22:29:18.243Z,93531.59
2023-11-01T22:31:52.434Z,93533.59
2023-11-01T22:34:23.434Z,93529.19
2023-11-01T22:36:52.431Z,93525.84
2023-11-01T22:39:42.655Z,93517.56
2023-11-01T22:42:11.734Z,93517.34
2023-11-01T22:44:38.883Z,93513.41
2023-11-01T22:47:05.655Z,93502.75
2023-11-01T22:49:32.395Z,93502.53
2023-11-01T22:51:59.519Z,93490.44
2023-11-01T22:54:26.261Z,93492.66
2023-11-01T22:56:53.003Z,93487.41
2023-11-01T22:59:19.805Z,93481.25
2023-11-01T23:01:46.428Z,93475.06
2023-11-01T23:04:14.417Z,93473.66
2023-11-01T23:06:41.250Z,93482.03
2023-11-01T23:09:08.741Z,93469.25
2023-11-01T23:11:35.714Z,93458.53
2023-11-01T23:14:02.976Z,93456.41
2023-11-01T23:16:29.963Z,93454.13
2023-11-01T23:18:56.986Z,93438.91
2023-11-01T23:21:23.760Z,93426.63
2023-11-01T23:23:50.572Z,93429.72
2023-11-01T23:26:37.966Z,93418.19
2023-11-01T23:29:14.134Z,93410.06
2023-11-01T23:31:47.646Z,93412.47
2023-11-01T23:34:32.072Z,93407.72
2023-11-01T23:36:58.814Z,93403.50
2023-11-01T23:39:38.927Z,93405.94
2023-11-01T23:42:05.813Z,93404.78
2023-11-01T23:44:35.755Z,93394.09
2023-11-01T23:47:02.651Z,93380.63
2023-11-01T23:49:58.019Z,93373.06
2023-11-01T23:52:30.106Z,93375.28
2023-11-01T23:54:57.422Z,93379.59
2023-11-01T23:57:27.584Z,93368.72
2023-11-01T23:59:58.227Z,93361.38
